sensor_id;sensor_type;location;lat;lon;timestamp;P1;durP1;ratioP1;P2;durP2;ratioP2
21837;SDS011;11081;45.946;6.140;2024-03-07T00:00:12;1.90;;;1.70;;
21837;SDS011;11081;45.946;6.140;2024-03-07T00:02:45;3.60;;;1.83;;
21837;SDS011;11081;45.946;6.140;2024-03-07T00:05:16;2.00;;;1.70;;
21837;SDS011;11081;45.946;6.140;2024-03-07T00:07:44;3.40;;;1.90;;
21837;SDS011;11081;45.946;6.140;2024-03-07T00:10:13;3.57;;;2.10;;
21837;SDS011;11081;45.946;6.140;2024-03-07T00:12:43;3.10;;;2.10;;
21837;SDS011;11081;45.946;6.140;2024-03-07T00:15:12;6.37;;;2.60;;
21837;SDS011;11081;45.946;6.140;2024-03-07T00:17:41;5.60;;;1.70;;
21837;SDS011;11081;45.946;6.140;2024-03-07T00:20:10;2.80;;;1.87;;
21837;SDS011;11081;45.946;6.140;2024-03-07T00:22:42;2.83;;;1.87;;
21837;SDS011;11081;45.946;6.140;2024-03-07T00:25:11;4.90;;;2.00;;
21837;SDS011;11081;45.946;6.140;2024-03-07T00:27:40;4.80;;;2.30;;
21837;SDS011;11081;45.946;6.140;2024-03-07T00:30:09;5.63;;;1.80;;
21837;SDS011;11081;45.946;6.140;2024-03-07T00:32:40;2.53;;;1.87;;
21837;SDS011;11081;45.946;6.140;2024-03-07T00:35:08;5.47;;;1.90;;
21837;SDS011;11081;45.946;6.140;2024-03-07T00:37:35;3.17;;;2.00;;
21837;SDS011;11081;45.946;6.140;2024-03-07T00:40:04;4.00;;;1.80;;
21837;SDS011;11081;45.946;6.140;2024-03-07T00:42:33;3.17;;;1.90;;
21837;SDS011;11081;45.946;6.140;2024-03-07T00:45:01;3.97;;;2.13;;
21837;SDS011;11081;45.946;6.140;2024-03-07T00:47:31;5.90;;;2.27;;
21837;SDS011;11081;45.946;6.140;2024-03-07T00:50:00;4.23;;;1.90;;
21837;SDS011;11081;45.946;6.140;2024-03-07T00:52:28;6.23;;;1.97;;
21837;SDS011;11081;45.946;6.140;2024-03-07T00:54:56;2.00;;;1.60;;
21837;SDS011;11081;45.946;6.140;2024-03-07T00:57:24;3.53;;;2.10;;
21837;SDS011;11081;45.946;6.140;2024-03-07T00:59:52;4.07;;;2.23;;
21837;SDS011;11081;45.946;6.140;2024-03-07T01:02:20;2.83;;;2.10;;
21837;SDS011;11081;45.946;6.140;2024-03-07T01:04:50;6.20;;;2.60;;
21837;SDS011;11081;45.946;6.140;2024-03-07T01:07:18;6.63;;;2.57;;
21837;SDS011;11081;45.946;6.140;2024-03-07T01:09:46;3.77;;;2.37;;
21837;SDS011;11081;45.946;6.140;2024-03-07T01:12:14;6.13;;;2.60;;
21837;SDS011;11081;45.946;6.140;2024-03-07T01:14:42;3.80;;;2.30;;
21837;SDS011;11081;45.946;6.140;2024-03-07T01:17:10;3.00;;;2.40;;
21837;SDS011;11081;45.946;6.140;2024-03-07T01:19:39;4.60;;;2.50;;
21837;SDS011;11081;45.946;6.140;2024-03-07T01:22:08;4.47;;;2.70;;
21837;SDS011;11081;45.946;6.140;2024-03-07T01:24:36;4.93;;;2.50;;
21837;SDS011;11081;45.946;6.140;2024-03-07T01:27:05;5.23;;;2.57;;
21837;SDS011;11081;45.946;6.140;2024-03-07T01:29:33;4.03;;;2.50;;
21837;SDS011;11081;45.946;6.140;2024-03-07T01:32:02;5.57;;;2.60;;
21837;SDS011;11081;45.946;6.140;2024-03-07T01:34:30;4.07;;;2.90;;
21837;SDS011;11081;45.946;6.140;2024-03-07T01:36:58;3.57;;;2.47;;
21837;SDS011;11081;45.946;6.140;2024-03-07T01:39:28;5.53;;;2.27;;
21837;SDS011;11081;45.946;6.140;2024-03-07T01:41:56;3.03;;;2.33;;
21837;SDS011;11081;45.946;6.140;2024-03-07T01:44:24;2.83;;;2.00;;
21837;SDS011;11081;45.946;6.140;2024-03-07T01:46:52;3.17;;;2.53;;
21837;SDS011;11081;45.946;6.140;2024-03-07T01:49:19;5.63;;;3.20;;
21837;SDS011;11081;45.946;6.140;2024-03-07T01:51:49;4.63;;;2.53;;
21837;SDS011;11081;45.946;6.140;2024-03-07T01:54:18;4.40;;;2.30;;
21837;SDS011;11081;45.946;6.140;2024-03-07T01:56:48;3.33;;;1.97;;
21837;SDS011;11081;45.946;6.140;2024-03-07T01:59:16;7.17;;;2.00;;
21837;SDS011;11081;45.946;6.140;2024-03-07T02:01:47;3.43;;;2.17;;
21837;SDS011;11081;45.946;6.140;2024-03-07T02:04:15;2.70;;;1.70;;
21837;SDS011;11081;45.946;6.140;2024-03-07T02:06:43;2.83;;;2.00;;
21837;SDS011;11081;45.946;6.140;2024-03-07T02:09:11;3.30;;;1.80;;
21837;SDS011;11081;45.946;6.140;2024-03-07T02:11:40;2.97;;;1.80;;
21837;SDS011;11081;45.946;6.140;2024-03-07T02:14:10;4.00;;;1.87;;
21837;SDS011;11081;45.946;6.140;2024-03-07T02:16:38;1.73;;;1.30;;
21837;SDS011;11081;45.946;6.140;2024-03-07T02:19:06;5.40;;;1.60;;
21837;SDS011;11081;45.946;6.140;2024-03-07T02:21:38;2.20;;;1.70;;
21837;SDS011;11081;45.946;6.140;2024-03-07T02:24:06;4.03;;;1.57;;
21837;SDS011;11081;45.946;6.140;2024-03-07T02:26:35;2.37;;;1.50;;
21837;SDS011;11081;45.946;6.140;2024-03-07T02:29:03;3.50;;;1.83;;
21837;SDS011;11081;45.946;6.140;2024-03-07T02:31:31;3.83;;;2.10;;
21837;SDS011;11081;45.946;6.140;2024-03-07T02:34:03;5.27;;;2.07;;
21837;SDS011;11081;45.946;6.140;2024-03-07T02:36:33;2.43;;;1.90;;
21837;SDS011;11081;45.946;6.140;2024-03-07T02:39:03;2.60;;;1.93;;
21837;SDS011;11081;45.946;6.140;2024-03-07T02:41:32;4.93;;;2.13;;
21837;SDS011;11081;45.946;6.140;2024-03-07T02:44:01;3.67;;;2.40;;
21837;SDS011;11081;45.946;6.140;2024-03-07T02:46:30;3.80;;;2.20;;
21837;SDS011;11081;45.946;6.140;2024-03-07T02:48:59;4.10;;;2.47;;
21837;SDS011;11081;45.946;6.140;2024-03-07T02:51:27;4.37;;;2.23;;
21837;SDS011;11081;45.946;6.140;2024-03-07T02:53:56;3.83;;;2.60;;
21837;SDS011;11081;45.946;6.140;2024-03-07T02:56:25;8.13;;;3.37;;
21837;SDS011;11081;45.946;6.140;2024-03-07T02:58:53;4.53;;;2.30;;
21837;SDS011;11081;45.946;6.140;2024-03-07T03:01:21;5.20;;;2.77;;
21837;SDS011;11081;45.946;6.140;2024-03-07T03:03:49;3.67;;;2.83;;
21837;SDS011;11081;45.946;6.140;2024-03-07T03:06:17;3.80;;;2.90;;
21837;SDS011;11081;45.946;6.140;2024-03-07T03:08:46;3.70;;;2.63;;
21837;SDS011;11081;45.946;6.140;2024-03-07T03:11:15;6.60;;;2.87;;
21837;SDS011;11081;45.946;6.140;2024-03-07T03:13:44;4.23;;;2.80;;
21837;SDS011;11081;45.946;6.140;2024-03-07T03:16:13;5.40;;;2.93;;
21837;SDS011;11081;45.946;6.140;2024-03-07T03:18:41;4.20;;;2.80;;
21837;SDS011;11081;45.946;6.140;2024-03-07T03:21:09;3.37;;;2.57;;
21837;SDS011;11081;45.946;6.140;2024-03-07T03:23:37;3.30;;;2.50;;
21837;SDS011;11081;45.946;6.140;2024-03-07T03:26:07;4.00;;;2.80;;
21837;SDS011;11081;45.946;6.140;2024-03-07T03:28:35;4.30;;;2.80;;
21837;SDS011;11081;45.946;6.140;2024-03-07T03:31:05;4.97;;;2.93;;
21837;SDS011;11081;45.946;6.140;2024-03-07T03:33:33;3.47;;;2.70;;
21837;SDS011;11081;45.946;6.140;2024-03-07T03:36:01;4.73;;;2.90;;
21837;SDS011;11081;45.946;6.140;2024-03-07T03:38:30;4.73;;;2.83;;
21837;SDS011;11081;45.946;6.140;2024-03-07T03:40:58;4.27;;;3.00;;
21837;SDS011;11081;45.946;6.140;2024-03-07T03:43:26;4.47;;;2.90;;
21837;SDS011;11081;45.946;6.140;2024-03-07T03:45:57;4.30;;;2.60;;
21837;SDS011;11081;45.946;6.140;2024-03-07T03:48:26;7.53;;;3.17;;
21837;SDS011;11081;45.946;6.140;2024-03-07T03:50:54;3.50;;;2.97;;
21837;SDS011;11081;45.946;6.140;2024-03-07T03:53:22;4.73;;;3.10;;
21837;SDS011;11081;45.946;6.140;2024-03-07T03:55:50;3.73;;;2.80;;
21837;SDS011;11081;45.946;6.140;2024-03-07T03:58:18;3.83;;;2.87;;
21837;SDS011;11081;45.946;6.140;2024-03-07T04:00:46;5.70;;;2.73;;
21837;SDS011;11081;45.946;6.140;2024-03-07T04:03:14;4.27;;;2.90;;
21837;SDS011;11081;45.946;6.140;2024-03-07T04:05:43;3.50;;;2.70;;
21837;SDS011;11081;45.946;6.140;2024-03-07T04:08:13;3.20;;;2.53;;
21837;SDS011;11081;45.946;6.140;2024-03-07T04:10:41;4.83;;;2.83;;
21837;SDS011;11081;45.946;6.140;2024-03-07T04:13:09;3.10;;;2.30;;
21837;SDS011;11081;45.946;6.140;2024-03-07T04:15:37;4.47;;;2.40;;
21837;SDS011;11081;45.946;6.140;2024-03-07T04:18:09;5.83;;;2.70;;
21837;SDS011;11081;45.946;6.140;2024-03-07T04:20:37;6.10;;;2.80;;
21837;SDS011;11081;45.946;6.140;2024-03-07T04:23:07;5.73;;;2.87;;
21837;SDS011;11081;45.946;6.140;2024-03-07T04:25:38;4.27;;;2.93;;
21837;SDS011;11081;45.946;6.140;2024-03-07T04:28:06;3.23;;;2.90;;
21837;SDS011;11081;45.946;6.140;2024-03-07T04:30:34;4.63;;;3.03;;
21837;SDS011;11081;45.946;6.140;2024-03-07T04:33:02;5.17;;;2.80;;
21837;SDS011;11081;45.946;6.140;2024-03-07T04:35:31;5.37;;;2.77;;
21837;SDS011;11081;45.946;6.140;2024-03-07T04:38:00;3.80;;;2.50;;
21837;SDS011;11081;45.946;6.140;2024-03-07T04:40:29;5.17;;;2.60;;
21837;SDS011;11081;45.946;6.140;2024-03-07T04:42:57;3.10;;;2.50;;
21837;SDS011;11081;45.946;6.140;2024-03-07T04:45:25;3.30;;;2.23;;
21837;SDS011;11081;45.946;6.140;2024-03-07T04:47:53;5.87;;;2.80;;
21837;SDS011;11081;45.946;6.140;2024-03-07T04:50:22;5.80;;;2.47;;
21837;SDS011;11081;45.946;6.140;2024-03-07T04:52:50;2.87;;;2.27;;
21837;SDS011;11081;45.946;6.140;2024-03-07T04:55:18;3.67;;;1.90;;
21837;SDS011;11081;45.946;6.140;2024-03-07T04:57:47;2.67;;;1.97;;
21837;SDS011;11081;45.946;6.140;2024-03-07T05:00:15;3.60;;;1.90;;
21837;SDS011;11081;45.946;6.140;2024-03-07T05:02:48;2.27;;;1.67;;
21837;SDS011;11081;45.946;6.140;2024-03-07T05:05:18;3.20;;;1.80;;
21837;SDS011;11081;45.946;6.140;2024-03-07T05:07:49;3.73;;;1.47;;
21837;SDS011;11081;45.946;6.140;2024-03-07T05:10:18;5.43;;;1.53;;
21837;SDS011;11081;45.946;6.140;2024-03-07T05:12:48;4.03;;;2.00;;
21837;SDS011;11081;45.946;6.140;2024-03-07T05:15:17;4.37;;;2.07;;
21837;SDS011;11081;45.946;6.140;2024-03-07T05:17:45;4.73;;;1.70;;
21837;SDS011;11081;45.946;6.140;2024-03-07T05:20:13;3.87;;;1.77;;
21837;SDS011;11081;45.946;6.140;2024-03-07T05:22:42;2.70;;;1.90;;
21837;SDS011;11081;45.946;6.140;2024-03-07T05:25:13;4.50;;;1.83;;
21837;SDS011;11081;45.946;6.140;2024-03-07T05:27:43;2.43;;;1.70;;
21837;SDS011;11081;45.946;6.140;2024-03-07T05:30:12;2.50;;;1.63;;
21837;SDS011;11081;45.946;6.140;2024-03-07T05:32:42;3.07;;;1.60;;
21837;SDS011;11081;45.946;6.140;2024-03-07T05:35:10;2.13;;;1.60;;
21837;SDS011;11081;45.946;6.140;2024-03-07T05:37:39;3.37;;;1.60;;
21837;SDS011;11081;45.946;6.140;2024-03-07T05:40:13;2.30;;;1.37;;
21837;SDS011;11081;45.946;6.140;2024-03-07T05:42:42;3.17;;;1.57;;
21837;SDS011;11081;45.946;6.140;2024-03-07T05:45:10;2.30;;;1.63;;
21837;SDS011;11081;45.946;6.140;2024-03-07T05:47:39;3.63;;;1.90;;
21837;SDS011;11081;45.946;6.140;2024-03-07T05:50:07;2.23;;;1.60;;
21837;SDS011;11081;45.946;6.140;2024-03-07T05:52:36;2.47;;;1.70;;
21837;SDS011;11081;45.946;6.140;2024-03-07T05:55:04;2.33;;;1.70;;
21837;SDS011;11081;45.946;6.140;2024-03-07T05:57:33;2.33;;;1.87;;
21837;SDS011;11081;45.946;6.140;2024-03-07T06:00:01;4.17;;;2.00;;
21837;SDS011;11081;45.946;6.140;2024-03-07T06:02:38;2.03;;;1.63;;
21837;SDS011;11081;45.946;6.140;2024-03-07T06:05:07;3.30;;;1.80;;
21837;SDS011;11081;45.946;6.140;2024-03-07T06:07:39;3.47;;;1.67;;
21837;SDS011;11081;45.946;6.140;2024-03-07T06:10:07;4.17;;;1.90;;
21837;SDS011;11081;45.946;6.140;2024-03-07T06:12:37;3.33;;;1.83;;
21837;SDS011;11081;45.946;6.140;2024-03-07T06:15:26;2.57;;;1.97;;
21837;SDS011;11081;45.946;6.140;2024-03-07T06:17:56;2.00;;;1.50;;
21837;SDS011;11081;45.946;6.140;2024-03-07T06:20:24;4.77;;;1.60;;
21837;SDS011;11081;45.946;6.140;2024-03-07T06:22:52;2.10;;;1.60;;
21837;SDS011;11081;45.946;6.140;2024-03-07T06:25:20;2.93;;;1.80;;
21837;SDS011;11081;45.946;6.140;2024-03-07T06:28:00;4.83;;;1.73;;
21837;SDS011;11081;45.946;6.140;2024-03-07T06:30:35;3.33;;;1.63;;
21837;SDS011;11081;45.946;6.140;2024-03-07T06:33:05;2.53;;;1.40;;
21837;SDS011;11081;45.946;6.140;2024-03-07T06:35:34;2.60;;;1.50;;
21837;SDS011;11081;45.946;6.140;2024-03-07T06:38:03;2.93;;;1.47;;
21837;SDS011;11081;45.946;6.140;2024-03-07T06:40:32;1.87;;;1.33;;
21837;SDS011;11081;45.946;6.140;2024-03-07T06:43:00;2.20;;;1.30;;
21837;SDS011;11081;45.946;6.140;2024-03-07T06:45:30;2.90;;;1.70;;
21837;SDS011;11081;45.946;6.140;2024-03-07T06:47:58;2.97;;;1.80;;
21837;SDS011;11081;45.946;6.140;2024-03-07T06:50:28;5.27;;;2.27;;
21837;SDS011;11081;45.946;6.140;2024-03-07T06:53:04;5.40;;;2.40;;
21837;SDS011;11081;45.946;6.140;2024-03-07T06:55:33;5.03;;;2.37;;
21837;SDS011;11081;45.946;6.140;2024-03-07T06:58:01;3.87;;;2.80;;
21837;SDS011;11081;45.946;6.140;2024-03-07T07:00:31;6.30;;;3.60;;
21837;SDS011;11081;45.946;6.140;2024-03-07T07:03:02;6.43;;;2.73;;
21837;SDS011;11081;45.946;6.140;2024-03-07T07:05:33;8.60;;;3.20;;
21837;SDS011;11081;45.946;6.140;2024-03-07T07:08:02;3.30;;;2.07;;
21837;SDS011;11081;45.946;6.140;2024-03-07T07:10:31;5.13;;;2.10;;
21837;SDS011;11081;45.946;6.140;2024-03-07T07:12:59;3.27;;;1.90;;
21837;SDS011;11081;45.946;6.140;2024-03-07T07:15:27;3.80;;;2.03;;
21837;SDS011;11081;45.946;6.140;2024-03-07T07:17:55;3.70;;;2.00;;
21837;SDS011;11081;45.946;6.140;2024-03-07T07:20:23;4.53;;;2.80;;
21837;SDS011;11081;45.946;6.140;2024-03-07T07:22:53;8.17;;;3.70;;
21837;SDS011;11081;45.946;6.140;2024-03-07T07:25:21;5.40;;;3.40;;
21837;SDS011;11081;45.946;6.140;2024-03-07T07:27:50;7.73;;;3.87;;
21837;SDS011;11081;45.946;6.140;2024-03-07T07:30:20;7.30;;;3.27;;
21837;SDS011;11081;45.946;6.140;2024-03-07T07:32:50;6.63;;;3.63;;
21837;SDS011;11081;45.946;6.140;2024-03-07T07:35:20;5.20;;;3.43;;
21837;SDS011;11081;45.946;6.140;2024-03-07T07:37:49;8.10;;;3.60;;
21837;SDS011;11081;45.946;6.140;2024-03-07T07:40:21;4.23;;;2.23;;
21837;SDS011;11081;45.946;6.140;2024-03-07T07:42:52;8.07;;;3.00;;
21837;SDS011;11081;45.946;6.140;2024-03-07T07:45:21;7.10;;;3.17;;
21837;SDS011;11081;45.946;6.140;2024-03-07T07:47:51;7.87;;;3.70;;
21837;SDS011;11081;45.946;6.140;2024-03-07T07:50:20;6.37;;;4.00;;
21837;SDS011;11081;45.946;6.140;2024-03-07T07:52:49;6.87;;;4.03;;
21837;SDS011;11081;45.946;6.140;2024-03-07T07:55:21;11.33;;;4.00;;
21837;SDS011;11081;45.946;6.140;2024-03-07T07:57:51;7.97;;;3.63;;
21837;SDS011;11081;45.946;6.140;2024-03-07T08:00:21;4.87;;;3.07;;
21837;SDS011;11081;45.946;6.140;2024-03-07T08:02:57;7.70;;;3.20;;
21837;SDS011;11081;45.946;6.140;2024-03-07T08:05:26;6.57;;;2.87;;
21837;SDS011;11081;45.946;6.140;2024-03-07T08:07:56;8.70;;;2.90;;
21837;SDS011;11081;45.946;6.140;2024-03-07T08:10:27;4.43;;;2.73;;
21837;SDS011;11081;45.946;6.140;2024-03-07T08:12:56;4.43;;;2.50;;
21837;SDS011;11081;45.946;6.140;2024-03-07T08:15:25;6.83;;;3.00;;
21837;SDS011;11081;45.946;6.140;2024-03-07T08:17:54;3.57;;;2.07;;
21837;SDS011;11081;45.946;6.140;2024-03-07T08:20:24;3.37;;;1.90;;
21837;SDS011;11081;45.946;6.140;2024-03-07T08:22:53;5.80;;;2.57;;
21837;SDS011;11081;45.946;6.140;2024-03-07T08:25:22;2.63;;;1.93;;
21837;SDS011;11081;45.946;6.140;2024-03-07T08:27:53;3.90;;;2.30;;
21837;SDS011;11081;45.946;6.140;2024-03-07T08:30:23;3.37;;;2.23;;
21837;SDS011;11081;45.946;6.140;2024-03-07T08:32:53;3.27;;;1.70;;
21837;SDS011;11081;45.946;6.140;2024-03-07T08:35:24;3.00;;;1.70;;
21837;SDS011;11081;45.946;6.140;2024-03-07T08:37:53;4.40;;;1.57;;
21837;SDS011;11081;45.946;6.140;2024-03-07T08:40:24;1.73;;;1.03;;
21837;SDS011;11081;45.946;6.140;2024-03-07T08:42:56;1.77;;;1.20;;
21837;SDS011;11081;45.946;6.140;2024-03-07T08:45:25;3.80;;;1.83;;
21837;SDS011;11081;45.946;6.140;2024-03-07T08:47:54;3.63;;;1.40;;
21837;SDS011;11081;45.946;6.140;2024-03-07T08:50:25;9.90;;;1.70;;
21837;SDS011;11081;45.946;6.140;2024-03-07T08:52:55;2.87;;;1.73;;
21837;SDS011;11081;45.946;6.140;2024-03-07T08:55:23;4.80;;;1.97;;
21837;SDS011;11081;45.946;6.140;2024-03-07T08:57:52;4.13;;;1.70;;
21837;SDS011;11081;45.946;6.140;2024-03-07T09:00:22;4.60;;;1.80;;
21837;SDS011;11081;45.946;6.140;2024-03-07T09:02:53;7.50;;;2.07;;
21837;SDS011;11081;45.946;6.140;2024-03-07T09:05:26;2.60;;;1.50;;
21837;SDS011;11081;45.946;6.140;2024-03-07T09:07:55;3.60;;;1.80;;
21837;SDS011;11081;45.946;6.140;2024-03-07T09:10:23;3.57;;;1.93;;
21837;SDS011;11081;45.946;6.140;2024-03-07T09:12:52;4.33;;;1.80;;
21837;SDS011;11081;45.946;6.140;2024-03-07T09:15:23;3.80;;;1.87;;
21837;SDS011;11081;45.946;6.140;2024-03-07T09:17:51;4.40;;;1.97;;
21837;SDS011;11081;45.946;6.140;2024-03-07T09:20:20;4.97;;;1.80;;
21837;SDS011;11081;45.946;6.140;2024-03-07T09:22:50;6.30;;;2.10;;
21837;SDS011;11081;45.946;6.140;2024-03-07T09:25:22;3.93;;;1.70;;
21837;SDS011;11081;45.946;6.140;2024-03-07T09:27:51;3.80;;;1.80;;
21837;SDS011;11081;45.946;6.140;2024-03-07T09:30:21;3.90;;;1.60;;
21837;SDS011;11081;45.946;6.140;2024-03-07T09:32:53;4.13;;;2.07;;
21837;SDS011;11081;45.946;6.140;2024-03-07T09:35:22;3.93;;;1.80;;
21837;SDS011;11081;45.946;6.140;2024-03-07T09:37:51;2.90;;;1.90;;
21837;SDS011;11081;45.946;6.140;2024-03-07T09:40:20;6.00;;;1.67;;
21837;SDS011;11081;45.946;6.140;2024-03-07T09:42:52;3.90;;;1.83;;
21837;SDS011;11081;45.946;6.140;2024-03-07T09:45:22;5.60;;;1.70;;
21837;SDS011;11081;45.946;6.140;2024-03-07T09:47:56;3.07;;;1.37;;
21837;SDS011;11081;45.946;6.140;2024-03-07T09:50:25;3.03;;;1.80;;
21837;SDS011;11081;45.946;6.140;2024-03-07T09:52:56;3.63;;;2.00;;
21837;SDS011;11081;45.946;6.140;2024-03-07T09:55:27;5.00;;;1.87;;
21837;SDS011;11081;45.946;6.140;2024-03-07T09:57:56;7.07;;;1.87;;
21837;SDS011;11081;45.946;6.140;2024-03-07T10:00:28;8.63;;;1.80;;
21837;SDS011;11081;45.946;6.140;2024-03-07T10:02:58;2.60;;;1.60;;
21837;SDS011;11081;45.946;6.140;2024-03-07T10:05:29;2.10;;;1.23;;
21837;SDS011;11081;45.946;6.140;2024-03-07T10:07:59;2.43;;;1.53;;
21837;SDS011;11081;45.946;6.140;2024-03-07T10:10:28;3.87;;;1.30;;
21837;SDS011;11081;45.946;6.140;2024-03-07T10:12:57;5.00;;;1.47;;
21837;SDS011;11081;45.946;6.140;2024-03-07T10:15:28;4.93;;;1.33;;
21837;SDS011;11081;45.946;6.140;2024-03-07T10:17:58;2.30;;;1.20;;
21837;SDS011;11081;45.946;6.140;2024-03-07T10:20:27;2.23;;;1.27;;
21837;SDS011;11081;45.946;6.140;2024-03-07T10:22:56;6.53;;;1.00;;
21837;SDS011;11081;45.946;6.140;2024-03-07T10:25:24;3.80;;;1.37;;
21837;SDS011;11081;45.946;6.140;2024-03-07T10:27:55;3.90;;;1.20;;
21837;SDS011;11081;45.946;6.140;2024-03-07T10:30:28;3.23;;;1.03;;
21837;SDS011;11081;45.946;6.140;2024-03-07T10:32:57;4.93;;;1.53;;
21837;SDS011;11081;45.946;6.140;2024-03-07T10:35:28;2.10;;;1.27;;
21837;SDS011;11081;45.946;6.140;2024-03-07T10:37:58;2.03;;;1.20;;
21837;SDS011;11081;45.946;6.140;2024-03-07T10:40:28;2.80;;;1.30;;
21837;SDS011;11081;45.946;6.140;2024-03-07T10:42:57;2.13;;;1.20;;
21837;SDS011;11081;45.946;6.140;2024-03-07T10:45:31;2.40;;;1.30;;
21837;SDS011;11081;45.946;6.140;2024-03-07T10:48:02;2.30;;;0.90;;
21837;SDS011;11081;45.946;6.140;2024-03-07T10:50:44;1.90;;;0.93;;
21837;SDS011;11081;45.946;6.140;2024-03-07T10:53:24;1.37;;;0.90;;
21837;SDS011;11081;45.946;6.140;2024-03-07T10:56:08;1.80;;;1.03;;
21837;SDS011;11081;45.946;6.140;2024-03-07T10:58:47;2.23;;;1.07;;
21837;SDS011;11081;45.946;6.140;2024-03-07T11:01:28;1.87;;;1.10;;
21837;SDS011;11081;45.946;6.140;2024-03-07T11:04:00;3.60;;;1.20;;
21837;SDS011;11081;45.946;6.140;2024-03-07T11:06:32;3.57;;;1.53;;
21837;SDS011;11081;45.946;6.140;2024-03-07T11:09:02;2.73;;;1.37;;
21837;SDS011;11081;45.946;6.140;2024-03-07T11:11:37;1.83;;;1.13;;
21837;SDS011;11081;45.946;6.140;2024-03-07T11:14:07;3.93;;;1.23;;
21837;SDS011;11081;45.946;6.140;2024-03-07T11:16:39;4.27;;;1.10;;
21837;SDS011;11081;45.946;6.140;2024-03-07T11:19:17;2.30;;;1.17;;
21837;SDS011;11081;45.946;6.140;2024-03-07T11:21:46;1.57;;;1.20;;
21837;SDS011;11081;45.946;6.140;2024-03-07T11:24:27;1.80;;;1.03;;
21837;SDS011;11081;45.946;6.140;2024-03-07T11:26:58;4.33;;;1.60;;
21837;SDS011;11081;45.946;6.140;2024-03-07T11:32:22;4.50;;;1.45;;
21837;SDS011;11081;45.946;6.140;2024-03-07T11:34:51;4.55;;;1.30;;
21837;SDS011;11081;45.946;6.140;2024-03-07T11:43:15;2.83;;;1.10;;
21837;SDS011;11081;45.946;6.140;2024-03-07T11:45:43;3.75;;;1.38;;
21837;SDS011;11081;45.946;6.140;2024-03-07T11:48:20;5.45;;;1.42;;
21837;SDS011;11081;45.946;6.140;2024-03-07T11:50:49;2.40;;;1.55;;
21837;SDS011;11081;45.946;6.140;2024-03-07T11:53:18;1.93;;;1.10;;
21837;SDS011;11081;45.946;6.140;2024-03-07T11:55:46;1.73;;;1.25;;
21837;SDS011;11081;45.946;6.140;2024-03-07T11:58:15;3.75;;;1.42;;
21837;SDS011;11081;45.946;6.140;2024-03-07T12:00:45;2.13;;;1.27;;
21837;SDS011;11081;45.946;6.140;2024-03-07T12:03:14;3.67;;;1.40;;
21837;SDS011;11081;45.946;6.140;2024-03-07T12:05:46;2.30;;;1.30;;
21837;SDS011;11081;45.946;6.140;2024-03-07T12:08:15;2.88;;;1.13;;
21837;SDS011;11081;45.946;6.140;2024-03-07T12:10:43;3.13;;;1.60;;
21837;SDS011;11081;45.946;6.140;2024-03-07T12:13:15;3.70;;;1.35;;
21837;SDS011;11081;45.946;6.140;2024-03-07T12:15:46;3.05;;;1.55;;
21837;SDS011;11081;45.946;6.140;2024-03-07T12:18:15;2.65;;;1.30;;
21837;SDS011;11081;45.946;6.140;2024-03-07T12:20:44;3.50;;;1.33;;
21837;SDS011;11081;45.946;6.140;2024-03-07T12:23:18;1.83;;;1.40;;
21837;SDS011;11081;45.946;6.140;2024-03-07T12:25:46;2.85;;;1.55;;
21837;SDS011;11081;45.946;6.140;2024-03-07T12:28:15;2.97;;;1.65;;
21837;SDS011;11081;45.946;6.140;2024-03-07T12:30:47;3.65;;;1.45;;
21837;SDS011;11081;45.946;6.140;2024-03-07T12:33:19;4.43;;;1.55;;
21837;SDS011;11081;45.946;6.140;2024-03-07T12:35:50;3.60;;;1.65;;
21837;SDS011;11081;45.946;6.140;2024-03-07T12:38:20;2.28;;;1.50;;
21837;SDS011;11081;45.946;6.140;2024-03-07T12:41:01;4.82;;;1.85;;
21837;SDS011;11081;45.946;6.140;2024-03-07T12:43:32;2.83;;;1.58;;
21837;SDS011;11081;45.946;6.140;2024-03-07T12:46:00;4.05;;;1.77;;
21837;SDS011;11081;45.946;6.140;2024-03-07T12:48:31;4.72;;;2.13;;
21837;SDS011;11081;45.946;6.140;2024-03-07T12:50:59;2.65;;;1.40;;
21837;SDS011;11081;45.946;6.140;2024-03-07T12:53:29;3.45;;;1.55;;
21837;SDS011;11081;45.946;6.140;2024-03-07T12:55:57;3.83;;;1.55;;
21837;SDS011;11081;45.946;6.140;2024-03-07T12:58:25;3.67;;;1.58;;
21837;SDS011;11081;45.946;6.140;2024-03-07T13:00:55;2.38;;;1.38;;
21837;SDS011;11081;45.946;6.140;2024-03-07T13:03:23;3.42;;;1.70;;
21837;SDS011;11081;45.946;6.140;2024-03-07T13:05:56;2.83;;;1.42;;
21837;SDS011;11081;45.946;6.140;2024-03-07T13:08:29;3.83;;;1.77;;
21837;SDS011;11081;45.946;6.140;2024-03-07T13:10:57;3.35;;;1.75;;
21837;SDS011;11081;45.946;6.140;2024-03-07T13:13:27;1.95;;;1.20;;
21837;SDS011;11081;45.946;6.140;2024-03-07T13:15:57;2.28;;;1.10;;
21837;SDS011;11081;45.946;6.140;2024-03-07T13:18:26;3.50;;;1.42;;
21837;SDS011;11081;45.946;6.140;2024-03-07T13:20:54;4.15;;;1.52;;
21837;SDS011;11081;45.946;6.140;2024-03-07T13:23:22;3.13;;;1.50;;
21837;SDS011;11081;45.946;6.140;2024-03-07T13:25:56;5.00;;;1.50;;
21837;SDS011;11081;45.946;6.140;2024-03-07T13:28:24;3.85;;;1.85;;
21837;SDS011;11081;45.946;6.140;2024-03-07T13:30:55;2.17;;;1.40;;
21837;SDS011;11081;45.946;6.140;2024-03-07T13:33:23;4.10;;;1.33;;
21837;SDS011;11081;45.946;6.140;2024-03-07T13:35:52;2.92;;;1.20;;
21837;SDS011;11081;45.946;6.140;2024-03-07T13:38:20;2.05;;;1.40;;
21837;SDS011;11081;45.946;6.140;2024-03-07T13:40:48;4.30;;;1.30;;
21837;SDS011;11081;45.946;6.140;2024-03-07T13:43:18;2.85;;;1.50;;
21837;SDS011;11081;45.946;6.140;2024-03-07T13:45:46;7.68;;;1.48;;
21837;SDS011;11081;45.946;6.140;2024-03-07T13:48:15;2.80;;;1.40;;
21837;SDS011;11081;45.946;6.140;2024-03-07T13:50:49;4.05;;;1.42;;
21837;SDS011;11081;45.946;6.140;2024-03-07T13:53:26;4.43;;;1.50;;
21837;SDS011;11081;45.946;6.140;2024-03-07T13:56:06;3.53;;;1.20;;
21837;SDS011;11081;45.946;6.140;2024-03-07T13:59:20;3.05;;;1.70;;
21837;SDS011;11081;45.946;6.140;2024-03-07T14:02:01;2.22;;;1.55;;
21837;SDS011;11081;45.946;6.140;2024-03-07T14:08:00;2.53;;;1.67;;
21837;SDS011;11081;45.946;6.140;2024-03-07T14:10:54;2.92;;;1.38;;
21837;SDS011;11081;45.946;6.140;2024-03-07T14:13:47;2.78;;;1.30;;
21837;SDS011;11081;45.946;6.140;2024-03-07T14:16:48;1.80;;;1.20;;
21837;SDS011;11081;45.946;6.140;2024-03-07T14:19:49;1.27;;;1.15;;
21837;SDS011;11081;45.946;6.140;2024-03-07T14:23:01;1.75;;;1.08;;
21837;SDS011;11081;45.946;6.140;2024-03-07T14:25:43;3.30;;;1.40;;
21837;SDS011;11081;45.946;6.140;2024-03-07T14:28:32;1.90;;;1.00;;
21837;SDS011;11081;45.946;6.140;2024-03-07T14:31:15;3.75;;;1.20;;
21837;SDS011;11081;45.946;6.140;2024-03-07T14:33:50;4.03;;;1.02;;
21837;SDS011;11081;45.946;6.140;2024-03-07T14:36:33;1.85;;;1.08;;
21837;SDS011;11081;45.946;6.140;2024-03-07T14:39:05;3.13;;;1.17;;
21837;SDS011;11081;45.946;6.140;2024-03-07T14:41:43;1.67;;;0.98;;
21837;SDS011;11081;45.946;6.140;2024-03-07T14:44:16;1.73;;;0.95;;
21837;SDS011;11081;45.946;6.140;2024-03-07T14:46:46;4.03;;;1.08;;
21837;SDS011;11081;45.946;6.140;2024-03-07T14:49:20;2.67;;;1.33;;
21837;SDS011;11081;45.946;6.140;2024-03-07T14:51:49;3.65;;;1.25;;
21837;SDS011;11081;45.946;6.140;2024-03-07T14:54:26;2.55;;;1.10;;
21837;SDS011;11081;45.946;6.140;2024-03-07T14:56:55;2.08;;;1.02;;
21837;SDS011;11081;45.946;6.140;2024-03-07T14:59:24;1.67;;;1.13;;
21837;SDS011;11081;45.946;6.140;2024-03-07T15:01:52;2.67;;;1.10;;
21837;SDS011;11081;45.946;6.140;2024-03-07T15:04:23;2.03;;;1.00;;
21837;SDS011;11081;45.946;6.140;2024-03-07T15:06:51;3.13;;;1.15;;
21837;SDS011;11081;45.946;6.140;2024-03-07T15:09:23;2.33;;;1.00;;
21837;SDS011;11081;45.946;6.140;2024-03-07T15:11:56;1.90;;;1.30;;
21837;SDS011;11081;45.946;6.140;2024-03-07T15:14:24;1.40;;;0.98;;
21837;SDS011;11081;45.946;6.140;2024-03-07T15:17:03;4.03;;;0.90;;
21837;SDS011;11081;45.946;6.140;2024-03-07T15:19:34;1.50;;;1.13;;